createdAt,value
2022-08-20T00:01:01.576Z,17.50
2022-08-20T00:03:53.340Z,17.40
2022-08-20T00:06:40.764Z,17.50
2022-08-20T00:09:27.049Z,17.50
2022-08-20T00:12:17.407Z,17.50
2022-08-20T00:15:05.982Z,17.50
2022-08-20T00:17:52.627Z,17.50
2022-08-20T00:20:46.326Z,17.50
2022-08-20T00:23:32.638Z,17.40
2022-08-20T00:26:19.417Z,17.40
2022-08-20T00:29:05.664Z,17.40
2022-08-20T00:31:51.787Z,17.30
2022-08-20T00:34:37.662Z,17.30
2022-08-20T00:37:23.752Z,17.30
2022-08-20T00:40:22.100Z,17.30
2022-08-20T00:43:32.316Z,17.20
2022-08-20T00:46:30.893Z,17.20
2022-08-20T00:49:25.939Z,17.20
2022-08-20T00:52:17.683Z,17.20
2022-08-20T00:55:06.561Z,17.20
2022-08-20T00:58:01.568Z,17.30
2022-08-20T01:00:49.786Z,17.30
2022-08-20T01:03:36.324Z,17.30
2022-08-20T01:06:24.837Z,17.30
2022-08-20T01:09:11.337Z,17.30
2022-08-20T01:11:57.951Z,17.20
2022-08-20T01:14:45.384Z,17.10
2022-08-20T01:17:34.930Z,17.10
2022-08-20T01:20:28.685Z,17.10
2022-08-20T01:23:32.384Z,17.10
2022-08-20T01:26:26.788Z,17.00
2022-08-20T01:29:23.109Z,17.00
2022-08-20T01:32:09.286Z,17.00
2022-08-20T01:34:55.280Z,17.00
2022-08-20T01:37:42.629Z,17.00
2022-08-20T01:41:04.331Z,17.00
2022-08-20T01:43:56.936Z,17.10
2022-08-20T01:46:46.913Z,17.10
2022-08-20T01:49:35.322Z,17.10
2022-08-20T01:52:32.492Z,17.10
2022-08-20T01:55:18.493Z,17.10
2022-08-20T01:58:05.318Z,17.10
2022-08-20T02:00:51.524Z,17.10
2022-08-20T02:03:40.739Z,17.10
2022-08-20T02:06:33.701Z,17.00
2022-08-20T02:09:19.990Z,17.00
2022-08-20T02:12:09.537Z,17.00
2022-08-20T02:14:56.952Z,17.00
2022-08-20T02:17:43.388Z,17.00
2022-08-20T02:20:31.880Z,17.00
2022-08-20T02:23:20.078Z,16.90
2022-08-20T02:26:07.458Z,16.90
2022-08-20T02:28:54.970Z,16.90
2022-08-20T02:32:24.984Z,16.90
2022-08-20T02:34:51.038Z,16.80
2022-08-20T02:37:37.823Z,16.80
2022-08-20T02:40:27.383Z,16.80
2022-08-20T02:43:19.366Z,16.70
2022-08-20T02:46:07.582Z,16.70
2022-08-20T02:48:53.793Z,16.70
2022-08-20T02:51:39.945Z,16.70
2022-08-20T02:54:25.847Z,16.70
2022-08-20T02:57:16.633Z,16.80
2022-08-20T03:00:04.464Z,16.70
2022-08-20T03:02:51.257Z,16.70
2022-08-20T03:05:38.165Z,16.70
2022-08-20T03:08:26.270Z,16.70
2022-08-20T03:11:12.135Z,16.70
2022-08-20T03:13:57.956Z,16.60
2022-08-20T03:16:44.305Z,16.70
2022-08-20T03:19:30.202Z,16.70
2022-08-20T03:22:16.358Z,16.70
2022-08-20T03:25:02.212Z,16.70
2022-08-20T03:27:54.613Z,16.60
2022-08-20T03:30:41.657Z,16.60
2022-08-20T03:33:28.097Z,16.60
2022-08-20T03:36:14.558Z,16.60
2022-08-20T03:39:11.717Z,16.60
2022-08-20T03:41:58.075Z,16.60
2022-08-20T03:44:44.018Z,16.60
2022-08-20T03:47:30.065Z,16.60
2022-08-20T03:50:23.241Z,16.60
2022-08-20T03:53:13.133Z,16.60
2022-08-20T03:56:05.330Z,16.60
2022-08-20T03:58:51.559Z,16.60
2022-08-20T04:01:46.088Z,16.60
2022-08-20T04:04:33.020Z,16.60
2022-08-20T04:07:25.814Z,16.60
2022-08-20T04:10:12.582Z,16.60
2022-08-20T04:12:59.005Z,16.60
2022-08-20T04:15:45.687Z,16.60
2022-08-20T04:18:32.525Z,16.60
2022-08-20T04:21:18.506Z,16.60
2022-08-20T04:24:05.890Z,16.70
2022-08-20T04:26:52.650Z,16.60
2022-08-20T04:29:42.960Z,16.60
2022-08-20T04:32:29.193Z,16.60
2022-08-20T04:35:18.066Z,16.60
2022-08-20T04:38:07.504Z,16.60
2022-08-20T04:40:54.064Z,16.60
2022-08-20T04:43:40.376Z,16.60
2022-08-20T04:46:28.651Z,16.60
2022-08-20T04:49:15.495Z,16.60
2022-08-20T04:52:03.256Z,16.60
2022-08-20T04:54:49.473Z,16.50
2022-08-20T04:57:38.324Z,16.50
2022-08-20T05:00:24.205Z,16.50
2022-08-20T05:03:10.028Z,16.50
2022-08-20T05:05:56.923Z,16.50
2022-08-20T05:08:44.118Z,16.60
2022-08-20T05:11:35.272Z,16.60
2022-08-20T05:14:22.858Z,16.60
2022-08-20T05:17:08.825Z,16.60
2022-08-20T05:19:55.003Z,16.60
2022-08-20T05:22:41.253Z,16.60
2022-08-20T05:25:30.944Z,16.60
2022-08-20T05:28:24.471Z,16.60
2022-08-20T05:31:10.486Z,16.70
2022-08-20T05:33:57.813Z,16.60
2022-08-20T05:36:49.046Z,16.70
2022-08-20T05:39:37.449Z,16.70
2022-08-20T05:42:23.870Z,16.70
2022-08-20T05:45:11.135Z,16.70
2022-08-20T05:47:58.610Z,16.70
2022-08-20T05:50:51.686Z,16.70
2022-08-20T05:53:37.615Z,16.70
2022-08-20T05:56:26.820Z,16.70
2022-08-20T05:59:14.117Z,16.70
2022-08-20T06:02:00.520Z,16.80
2022-08-20T06:04:46.365Z,16.80
2022-08-20T06:07:42.844Z,16.80
2022-08-20T06:10:28.858Z,16.90
2022-08-20T06:13:14.882Z,16.90
2022-08-20T06:16:01.988Z,16.90
2022-08-20T06:18:53.143Z,17.00
2022-08-20T06:21:44.094Z,16.90
2022-08-20T06:24:30.538Z,17.00
2022-08-20T06:27:17.196Z,17.00
2022-08-20T06:30:04.508Z,17.00
2022-08-20T06:32:51.328Z,17.00
2022-08-20T06:35:37.814Z,17.10
2022-08-20T06:38:23.797Z,17.10
2022-08-20T06:41:09.859Z,17.10
2022-08-20T06:43:56.411Z,17.10
2022-08-20T06:46:43.884Z,17.10
2022-08-20T06:49:34.228Z,17.20
2022-08-20T06:52:41.601Z,17.20
2022-08-20T06:55:29.971Z,17.20
2022-08-20T06:58:35.729Z,17.30
2022-08-20T07:01:23.026Z,17.30
2022-08-20T07:04:09.665Z,17.30
2022-08-20T07:06:57.644Z,17.40
2022-08-20T07:09:43.999Z,17.40
2022-08-20T07:12:29.985Z,17.40
2022-08-20T07:15:16.120Z,17.50
2022-08-20T07:18:04.385Z,17.50
2022-08-20T07:20:50.781Z,17.50
2022-08-20T07:23:36.960Z,17.50
2022-08-20T07:26:23.563Z,17.50
2022-08-20T07:29:09.890Z,17.50
2022-08-20T07:32:14.462Z,17.50
2022-08-20T07:35:01.501Z,17.60
2022-08-20T07:37:51.782Z,17.50
2022-08-20T07:40:37.592Z,17.50
2022-08-20T07:43:24.607Z,17.40
2022-08-20T07:46:10.448Z,17.40
2022-08-20T07:48:56.550Z,17.30
2022-08-20T07:51:42.903Z,17.30
2022-08-20T07:54:30.405Z,17.30
2022-08-20T07:57:17.355Z,17.40
2022-08-20T08:00:09.077Z,17.40
2022-08-20T08:02:55.677Z,17.40
2022-08-20T08:05:45.369Z,17.40
2022-08-20T08:08:33.370Z,17.40
2022-08-20T08:11:19.553Z,17.40
2022-08-20T08:14:09.862Z,17.40
2022-08-20T08:16:59.806Z,17.40
2022-08-20T08:19:49.223Z,17.40
2022-08-20T08:22:36.098Z,17.40
2022-08-20T08:25:22.331Z,17.50
2022-08-20T08:28:11.122Z,17.50
2022-08-20T08:30:57.763Z,17.50
2022-08-20T08:33:43.820Z,17.60
2022-08-20T08:36:30.179Z,17.60
2022-08-20T08:39:16.218Z,17.60
2022-08-20T08:42:03.777Z,17.60
2022-08-20T08:44:50.806Z,17.50
2022-08-20T08:47:39.396Z,17.50
2022-08-20T08:50:53.499Z,17.50
2022-08-20T08:53:43.734Z,17.50
2022-08-20T08:56:31.082Z,17.50
2022-08-20T08:59:18.892Z,17.50
2022-08-20T09:02:06.903Z,17.50
2022-08-20T09:04:56.028Z,17.50
2022-08-20T09:07:48.290Z,17.50
2022-08-20T09:10:34.688Z,17.60
2022-08-20T09:13:20.577Z,17.50
2022-08-20T09:16:06.769Z,17.50
2022-08-20T09:18:53.277Z,17.50
2022-08-20T09:21:39.564Z,17.50
2022-08-20T09:24:25.972Z,17.50
2022-08-20T09:27:12.335Z,17.50
2022-08-20T09:29:58.498Z,17.50
2022-08-20T09:32:44.838Z,17.50
2022-08-20T09:35:31.352Z,17.40
2022-08-20T09:38:17.986Z,17.40
2022-08-20T09:41:04.153Z,17.40
2022-08-20T09:43:50.024Z,17.40
2022-08-20T09:46:36.248Z,17.30
2022-08-20T09:49:22.452Z,17.30
2022-08-20T09:52:11.676Z,17.40
2022-08-20T09:55:04.812Z,17.40
2022-08-20T09:57:52.764Z,17.60
2022-08-20T10:00:40.322Z,17.60
2022-08-20T10:03:26.776Z,17.70
2022-08-20T10:06:14.793Z,17.70
2022-08-20T10:09:03.242Z,17.70
2022-08-20T10:11:49.536Z,17.60
2022-08-20T10:14:35.469Z,17.60
2022-08-20T10:17:21.533Z,17.60
2022-08-20T10:20:09.862Z,17.60
2022-08-20T10:22:56.026Z,17.70
2022-08-20T10:25:42.878Z,17.80
2022-08-20T10:28:28.850Z,17.80
2022-08-20T10:31:15.476Z,17.70
2022-08-20T10:34:01.653Z,17.70
2022-08-20T10:36:47.658Z,17.70
2022-08-20T10:39:34.385Z,17.70
2022-08-20T10:42:20.654Z,17.70
2022-08-20T10:45:06.934Z,17.70
2022-08-20T10:47:53.161Z,17.80
2022-08-20T10:50:39.710Z,17.80
2022-08-20T10:53:25.748Z,17.90
2022-08-20T10:56:15.429Z,17.90
2022-08-20T10:59:01.721Z,17.90
2022-08-20T11:01:47.905Z,18.00
2022-08-20T11:04:34.458Z,18.10
2022-08-20T11:07:50.031Z,18.10
2022-08-20T11:10:34.689Z,18.20
2022-08-20T11:13:20.888Z,18.30
2022-08-20T11:16:07.326Z,18.30
2022-08-20T11:18:53.480Z,18.20
2022-08-20T11:21:39.465Z,18.10
2022-08-20T11:24:25.531Z,18.20
2022-08-20T11:27:21.315Z,18.20
2022-08-20T11:30:11.150Z,18.10
2022-08-20T11:32:58.725Z,18.10
2022-08-20T11:35:49.766Z,18.20
2022-08-20T11:38:36.620Z,18.30
2022-08-20T11:41:22.531Z,18.30
2022-08-20T11:44:20.244Z,18.30
2022-08-20T11:47:08.454Z,18.40
2022-08-20T11:50:06.964Z,18.50
2022-08-20T11:52:53.410Z,18.50
2022-08-20T11:55:39.971Z,18.40
2022-08-20T11:58:26.229Z,18.40
2022-08-20T12:01:12.515Z,18.50
2022-08-20T12:03:58.733Z,18.60
2022-08-20T12:06:44.562Z,18.60
2022-08-20T12:09:30.565Z,18.60
2022-08-20T12:12:18.198Z,18.60
2022-08-20T12:15:06.107Z,18.60
2022-08-20T12:17:52.462Z,18.50
2022-08-20T12:20:38.806Z,18.50
2022-08-20T12:23:24.748Z,18.60
2022-08-20T12:26:11.088Z,18.70
2022-08-20T12:28:57.289Z,18.70
2022-08-20T12:31:43.151Z,18.80
2022-08-20T12:34:29.190Z,18.80
2022-08-20T12:37:22.013Z,19.00
2022-08-20T12:40:15.512Z,19.10
2022-08-20T12:43:03.446Z,19.20
2022-08-20T12:45:49.651Z,19.40
2022-08-20T12:48:35.474Z,19.50
2022-08-20T12:51:21.316Z,19.70
2022-08-20T12:54:07.460Z,19.90
2022-08-20T12:56:53.688Z,20.00
2022-08-20T12:59:39.604Z,20.10
2022-08-20T13:02:25.946Z,20.10
2022-08-20T13:05:14.086Z,20.10
2022-08-20T13:08:00.559Z,20.00
2022-08-20T13:10:47.042Z,20.00
2022-08-20T13:13:32.982Z,19.90
2022-08-20T13:16:18.858Z,19.80
2022-08-20T13:19:04.930Z,19.70
2022-08-20T13:21:54.846Z,19.70
2022-08-20T13:24:42.484Z,19.70
2022-08-20T13:27:28.228Z,19.70
2022-08-20T13:30:18.181Z,19.70
2022-08-20T13:33:04.629Z,19.80
2022-08-20T13:35:50.494Z,19.80
2022-08-20T13:38:36.560Z,19.90
2022-08-20T13:41:22.501Z,19.90
2022-08-20T13:44:08.281Z,19.90
2022-08-20T13:46:54.486Z,20.00
2022-08-20T13:49:40.821Z,20.00
2022-08-20T13:52:27.489Z,20.00
2022-08-20T13:55:16.379Z,20.00
2022-08-20T13:58:05.943Z,20.10
2022-08-20T14:00:52.938Z,20.10
2022-08-20T14:03:39.159Z,20.20
2022-08-20T14:06:29.017Z,20.40
2022-08-20T14:09:15.243Z,20.50
2022-08-20T14:12:01.650Z,20.50
2022-08-20T14:14:47.534Z,20.50
2022-08-20T14:17:39.013Z,20.50
2022-08-20T14:20:32.630Z,20.50
2022-08-20T14:23:18.895Z,20.50
2022-08-20T14:26:05.106Z,20.40
2022-08-20T14:28:51.069Z,20.10
2022-08-20T14:31:36.961Z,19.90
2022-08-20T14:34:22.854Z,19.40
2022-08-20T14:37:22.466Z,18.60
2022-08-20T14:40:12.376Z,18.10
2022-08-20T14:42:58.661Z,17.70
2022-08-20T14:45:45.138Z,17.40
2022-08-20T14:48:31.053Z,17.30
2022-08-20T14:51:16.948Z,17.10
2022-08-20T14:54:02.945Z,17.10
2022-08-20T14:56:48.865Z,17.20
2022-08-20T14:59:36.765Z,17.30
2022-08-20T15:02:22.793Z,17.30
2022-08-20T15:05:09.305Z,17.20
2022-08-20T15:07:56.901Z,17.10
2022-08-20T15:10:43.109Z,17.00
2022-08-20T15:13:30.233Z,16.90
2022-08-20T15:16:16.553Z,16.80
2022-08-20T15:19:02.890Z,16.70
2022-08-20T15:21:49.003Z,16.60
2022-08-20T15:24:34.989Z,16.50
2022-08-20T15:27:23.597Z,16.60
2022-08-20T15:30:16.127Z,16.60
2022-08-20T15:33:02.777Z,16.50
2022-08-20T15:35:49.426Z,16.50
2022-08-20T15:38:36.456Z,16.50
2022-08-20T15:41:22.587Z,16.60
2022-08-20T15:44:08.451Z,16.60
2022-08-20T15:46:54.493Z,16.60
2022-08-20T15:49:40.749Z,16.70
2022-08-20T15:52:31.242Z,16.70
2022-08-20T15:55:17.910Z,16.80
2022-08-20T15:58:17.542Z,16.80
2022-08-20T16:01:28.543Z,16.80
2022-08-20T16:04:45.036Z,16.80
2022-08-20T16:07:34.354Z,16.80
2022-08-20T16:10:32.804Z,16.80
2022-08-20T16:13:33.588Z,16.80
2022-08-20T16:16:36.054Z,16.70
2022-08-20T16:19:25.531Z,16.60
2022-08-20T16:22:14.546Z,16.50
2022-08-20T16:25:01.637Z,16.50
2022-08-20T16:28:06.038Z,16.50
2022-08-20T16:31:06.411Z,16.50
2022-08-20T16:33:56.693Z,16.50
2022-08-20T16:37:00.771Z,16.50
2022-08-20T16:40:03.250Z,16.50
2022-08-20T16:42:53.960Z,16.50
2022-08-20T16:45:50.974Z,16.50
2022-08-20T16:48:41.256Z,16.50
2022-08-20T16:51:38.156Z,16.50
2022-08-20T16:54:29.439Z,16.40
2022-08-20T16:57:19.780Z,16.40
2022-08-20T17:00:24.463Z,16.50
2022-08-20T17:03:33.339Z,16.50
2022-08-20T17:06:37.646Z,16.50
2022-08-20T17:09:42.697Z,16.60
2022-08-20T17:12:30.322Z,16.70
2022-08-20T17:15:23.564Z,16.60
2022-08-20T17:18:38.477Z,16.60
2022-08-20T17:21:25.781Z,16.60
2022-08-20T17:24:16.532Z,16.60
2022-08-20T17:27:10.630Z,16.60
2022-08-20T17:30:10.169Z,16.60
2022-08-20T17:33:19.149Z,16.50
2022-08-20T17:36:13.964Z,16.50
2022-08-20T17:39:01.482Z,16.60
2022-08-20T17:41:52.116Z,16.60
2022-08-20T17:44:43.026Z,16.50
2022-08-20T17:47:34.810Z,16.60
2022-08-20T17:50:29.933Z,16.60
2022-08-20T17:53:28.065Z,16.60
2022-08-20T17:56:21.374Z,16.60
2022-08-20T17:59:19.031Z,16.60
2022-08-20T18:02:18.643Z,16.60
2022-08-20T18:05:13.434Z,16.60
2022-08-20T18:08:18.061Z,16.60
2022-08-20T18:11:19.802Z,16.70
2022-08-20T18:14:40.566Z,16.70
2022-08-20T18:17:51.752Z,16.70
2022-08-20T18:20:59.380Z,16.70
2022-08-20T18:23:47.911Z,16.80
2022-08-20T18:26:45.917Z,16.80
2022-08-20T18:29:34.941Z,16.80
2022-08-20T18:32:35.217Z,16.80
2022-08-20T18:35:33.380Z,16.80
2022-08-20T18:38:22.602Z,16.80
2022-08-20T18:41:12.797Z,16.80
2022-08-20T18:44:15.370Z,16.80
2022-08-20T18:47:04.713Z,16.80
2022-08-20T18:50:16.638Z,16.90
2022-08-20T18:53:17.237Z,16.90
2022-08-20T18:56:07.460Z,16.90
2022-08-20T18:59:14.526Z,16.90
2022-08-20T19:02:22.167Z,17.00
2022-08-20T19:05:12.209Z,17.00
2022-08-20T19:08:02.449Z,17.00
2022-08-20T19:11:02.946Z,17.10
2022-08-20T19:13:54.806Z,17.10
2022-08-20T19:16:47.625Z,17.10
2022-08-20T19:19:34.017Z,17.10
2022-08-20T19:22:21.182Z,17.10
2022-08-20T19:25:08.561Z,17.10
2022-08-20T19:27:57.326Z,17.10
2022-08-20T19:30:43.861Z,17.00
2022-08-20T19:33:35.006Z,17.00
2022-08-20T19:36:31.682Z,17.00
2022-08-20T19:39:20.631Z,17.00
2022-08-20T19:42:24.239Z,16.90
2022-08-20T19:45:23.724Z,16.90
2022-08-20T19:48:49.344Z,16.90
2022-08-20T19:51:48.090Z,16.90
2022-08-20T19:54:48.326Z,16.90
2022-08-20T19:57:34.822Z,16.90
2022-08-20T20:00:22.906Z,16.90
2022-08-20T20:03:19.097Z,16.90
2022-08-20T20:06:18.376Z,16.90
2022-08-20T20:09:08.665Z,16.80
2022-08-20T20:11:56.940Z,16.80
2022-08-20T20:14:44.433Z,16.80
2022-08-20T20:17:34.880Z,16.80
2022-08-20T20:20:32.996Z,16.80
2022-08-20T20:23:45.841Z,16.80
2022-08-20T20:26:36.618Z,16.80
2022-08-20T20:29:36.687Z,16.80
2022-08-20T20:32:25.084Z,16.80
2022-08-20T20:35:25.510Z,16.80
2022-08-20T20:38:24.528Z,16.80
2022-08-20T20:41:21.725Z,16.80
2022-08-20T20:44:19.646Z,16.80
2022-08-20T20:47:19.265Z,16.80
2022-08-20T20:50:07.792Z,16.80
2022-08-20T20:52:55.533Z,16.80
2022-08-20T20:55:52.758Z,16.80
2022-08-20T20:58:39.037Z,16.80
2022-08-20T21:01:45.747Z,16.80
2022-08-20T21:04:32.357Z,16.80
2022-08-20T21:07:22.327Z,16.80
2022-08-20T21:10:08.502Z,16.80
2022-08-20T21:12:55.453Z,16.80
2022-08-20T21:15:41.939Z,16.80
2022-08-20T21:18:28.185Z,16.80
2022-08-20T21:21:14.948Z,16.80
2022-08-20T21:24:01.243Z,16.80
2022-08-20T21:26:48.702Z,16.70
2022-08-20T21:29:35.509Z,16.70
2022-08-20T21:32:21.777Z,16.70
2022-08-20T21:35:10.001Z,16.70
2022-08-20T21:37:56.042Z,16.70
2022-08-20T21:40:42.029Z,16.70
2022-08-20T21:43:32.686Z,16.70
2022-08-20T21:46:19.792Z,16.70
2022-08-20T21:49:11.349Z,16.70
2022-08-20T21:51:57.993Z,16.70
2022-08-20T21:54:44.446Z,16.70
2022-08-20T21:57:33.269Z,16.70
2022-08-20T22:00:54.621Z,16.60
2022-08-20T22:03:41.217Z,16.70
2022-08-20T22:06:27.413Z,16.70
2022-08-20T22:09:14.473Z,16.70
2022-08-20T22:12:01.215Z,16.70
2022-08-20T22:14:47.138Z,16.80
2022-08-20T22:17:33.542Z,16.70
2022-08-20T22:20:19.449Z,16.80
2022-08-20T22:23:06.392Z,16.80
2022-08-20T22:25:52.715Z,16.80
2022-08-20T22:28:39.198Z,16.70
2022-08-20T22:31:31.545Z,16.70
2022-08-20T22:34:19.784Z,16.70
2022-08-20T22:37:06.253Z,16.70
2022-08-20T22:39:52.447Z,16.70
2022-08-20T22:42:38.833Z,16.70
2022-08-20T22:45:24.940Z,16.60
2022-08-20T22:48:20.846Z,16.70
2022-08-20T22:51:07.346Z,16.70
2022-08-20T22:53:53.593Z,16.70
2022-08-20T22:56:39.797Z,16.70
2022-08-20T22:59:27.825Z,16.70
2022-08-20T23:02:18.685Z,16.60
2022-08-20T23:05:05.537Z,16.70
2022-08-20T23:07:54.275Z,16.70
2022-08-20T23:10:41.230Z,16.60
2022-08-20T23:13:27.250Z,16.60
2022-08-20T23:16:13.598Z,16.60
2022-08-20T23:19:00.793Z,16.60
2022-08-20T23:21:46.540Z,16.60
2022-08-20T23:24:32.880Z,16.60
2022-08-20T23:27:21.067Z,16.60
2022-08-20T23:30:07.738Z,16.50
2022-08-20T23:32:54.215Z,16.50
2022-08-20T23:35:41.044Z,16.50
2022-08-20T23:38:27.404Z,16.50
2022-08-20T23:41:13.374Z,16.50
2022-08-20T23:43:59.812Z,16.40
2022-08-20T23:46:46.494Z,16.40
2022-08-20T23:49:32.783Z,16.40
2022-08-20T23:52:19.288Z,16.30
2022-08-20T23:55:06.262Z,16.30
2022-08-20T23:57:52.667Z,16.30
